Time;durP1;ratioP1;P1;durP2;ratioP2;P2;SDS_P1;SDS_P2;PMS_P1;PMS_P2;Temp;Humidity;BMP_temperature;BMP_pressure;BME280_temperature;BME280_humidity;BME280_pressure;Samples;Min_cycle;Max_cycle;Signal;HPM_P1;HPM_P2
2023/09/06 00:01:09;;;;;;;7.50;4.83;;;15.10;99.90;;;;;;5008980;28;20172;-61
2023/09/06 00:03:36;;;;;;;6.87;4.73;;;15.00;99.90;;;;;;5009152;28;20267;-60
2023/09/06 00:06:03;;;;;;;9.70;5.10;;;15.00;99.90;;;;;;5003885;28;20204;-59
2023/09/06 00:08:33;;;;;;;6.67;4.27;;;15.00;99.90;;;;;;5004373;28;20430;-59
2023/09/06 00:11:06;;;;;;;10.13;4.80;;;14.90;99.90;;;;;;5006422;28;20495;-59
2023/09/06 00:13:33;;;;;;;9.33;5.83;;;14.90;99.90;;;;;;5007253;28;20427;-59
2023/09/06 00:16:03;;;;;;;7.20;5.53;;;14.80;99.90;;;;;;5004173;28;20471;-59
2023/09/06 00:18:29;;;;;;;9.50;5.30;;;14.80;99.90;;;;;;5009004;28;20427;-60
2023/09/06 00:20:57;;;;;;;8.50;5.00;;;14.70;99.90;;;;;;5002725;28;20801;-60
2023/09/06 00:23:24;;;;;;;9.20;5.37;;;14.70;99.90;;;;;;5004823;28;21028;-59
2023/09/06 00:25:50;;;;;;;10.53;4.90;;;14.70;99.90;;;;;;5006189;28;20471;-60
2023/09/06 00:28:17;;;;;;;7.77;5.00;;;14.70;99.90;;;;;;5004500;28;20431;-59
2023/09/06 00:30:45;;;;;;;7.80;5.13;;;14.60;99.90;;;;;;5004270;28;20419;-58
2023/09/06 00:33:12;;;;;;;6.90;5.10;;;14.60;99.90;;;;;;5001941;28;20454;-60
2023/09/06 00:35:40;;;;;;;8.27;5.80;;;14.60;99.90;;;;;;5006006;28;20470;-62
2023/09/06 00:38:06;;;;;;;6.70;5.33;;;14.50;99.90;;;;;;5008037;28;20485;-59
2023/09/06 00:40:37;;;;;;;10.77;5.10;;;14.50;99.90;;;;;;5009189;28;20459;-59
2023/09/06 00:43:03;;;;;;;7.27;5.30;;;14.40;99.90;;;;;;5006658;28;20191;-59
2023/09/06 00:45:45;;;;;;;9.90;5.03;;;14.40;99.90;;;;;;5011482;28;20449;-60
2023/09/06 00:48:19;;;;;;;5.60;4.47;;;14.30;99.90;;;;;;5009322;28;20935;-61
2023/09/06 00:50:50;;;;;;;9.10;4.70;;;14.30;99.90;;;;;;5007228;28;20434;-60
2023/09/06 00:53:16;;;;;;;9.57;5.17;;;14.30;99.90;;;;;;5010398;28;20537;-59
2023/09/06 00:55:42;;;;;;;6.70;5.07;;;14.20;99.90;;;;;;5009193;28;20514;-59
2023/09/06 00:58:08;;;;;;;6.20;5.40;;;14.20;99.90;;;;;;5007696;28;20180;-60
2023/09/06 01:00:35;;;;;;;6.30;5.17;;;14.10;99.90;;;;;;5012768;28;20186;-60
2023/09/06 01:03:03;;;;;;;10.20;5.50;;;14.10;99.90;;;;;;5012042;28;20427;-60
2023/09/06 01:05:37;;;;;;;6.77;4.90;;;14.00;99.90;;;;;;5006866;28;20443;-59
2023/09/06 01:08:06;;;;;;;8.07;5.03;;;14.00;99.90;;;;;;5002656;28;20479;-59
2023/09/06 01:10:34;;;;;;;9.97;5.00;;;14.00;99.90;;;;;;5007891;28;20951;-59
2023/09/06 01:13:00;;;;;;;8.77;4.97;;;13.90;99.90;;;;;;5001662;28;20769;-61
2023/09/06 01:15:26;;;;;;;7.63;4.97;;;13.90;99.90;;;;;;5008021;28;20477;-61
2023/09/06 01:17:54;;;;;;;7.93;5.20;;;13.90;99.90;;;;;;5010783;28;20288;-59
2023/09/06 01:20:38;;;;;;;7.77;5.53;;;13.90;99.90;;;;;;5009762;28;20671;-58
2023/09/06 01:23:30;;;;;;;9.47;5.57;;;13.80;99.90;;;;;;5005802;28;20434;-60
2023/09/06 01:25:56;;;;;;;14.63;5.50;;;13.80;99.90;;;;;;5009167;28;20493;-59
2023/09/06 01:28:27;;;;;;;7.40;5.10;;;13.80;99.90;;;;;;5005365;28;20981;-59
2023/09/06 01:30:56;;;;;;;13.80;5.53;;;13.80;99.90;;;;;;5010797;28;20423;-61
2023/09/06 01:33:22;;;;;;;8.73;5.80;;;13.70;99.90;;;;;;5009334;28;20470;-61
2023/09/06 01:35:51;;;;;;;7.73;5.53;;;13.70;99.90;;;;;;5008026;28;20467;-60
2023/09/06 01:38:17;;;;;;;9.63;5.80;;;13.70;99.90;;;;;;5009329;28;21018;-59
2023/09/06 01:40:43;;;;;;;6.20;4.80;;;13.70;99.90;;;;;;5010516;28;20554;-59
2023/09/06 01:43:09;;;;;;;8.70;5.20;;;13.70;99.90;;;;;;5009869;28;20172;-61
2023/09/06 01:45:37;;;;;;;7.80;5.67;;;13.60;99.90;;;;;;5009493;28;20447;-59
2023/09/06 01:48:03;;;;;;;7.47;5.57;;;13.60;99.90;;;;;;5009776;28;20181;-59
2023/09/06 01:50:29;;;;;;;6.50;5.10;;;13.60;99.90;;;;;;5002966;28;20544;-59
2023/09/06 01:52:57;;;;;;;8.00;5.50;;;13.60;99.90;;;;;;5010238;28;20180;-59
2023/09/06 01:55:23;;;;;;;9.20;5.63;;;13.60;99.90;;;;;;5007380;28;20228;-60
2023/09/06 01:57:48;;;;;;;9.60;5.20;;;13.60;99.90;;;;;;5003076;28;20470;-59
2023/09/06 02:00:31;;;;;;;10.87;5.67;;;13.60;99.90;;;;;;5010246;28;20177;-59
2023/09/06 02:02:58;;;;;;;7.67;5.17;;;13.60;99.90;;;;;;5007964;28;20228;-60
2023/09/06 02:05:24;;;;;;;9.70;5.80;;;13.50;99.90;;;;;;5008197;28;20451;-59
2023/09/06 02:07:50;;;;;;;8.30;5.17;;;13.50;99.90;;;;;;5010717;28;20485;-62
2023/09/06 02:10:16;;;;;;;17.40;5.80;;;13.50;99.90;;;;;;5011069;28;20180;-59
2023/09/06 02:12:41;;;;;;;6.63;5.13;;;13.50;99.90;;;;;;5005974;28;20211;-60
2023/09/06 02:15:08;;;;;;;7.67;6.10;;;13.40;99.90;;;;;;5005742;28;20406;-58
2023/09/06 02:17:35;;;;;;;7.63;5.60;;;13.40;99.90;;;;;;5004052;28;20263;-59
2023/09/06 02:20:12;;;;;;;13.67;6.10;;;13.30;99.90;;;;;;4996846;28;20811;-62
2023/09/06 02:22:39;;;;;;;6.33;5.10;;;13.30;99.90;;;;;;5007561;28;20930;-60
2023/09/06 02:25:06;;;;;;;7.97;5.40;;;13.30;99.90;;;;;;5002179;28;20468;-62
2023/09/06 02:27:33;;;;;;;8.23;5.90;;;13.20;99.90;;;;;;4995954;28;20424;-60
2023/09/06 02:29:59;;;;;;;14.53;6.17;;;13.20;99.90;;;;;;4995226;28;20501;-61
2023/09/06 02:32:26;;;;;;;8.53;6.33;;;13.20;99.90;;;;;;4992472;28;21453;-61
2023/09/06 02:34:52;;;;;;;10.90;6.20;;;13.10;99.90;;;;;;4995287;28;20191;-60
2023/09/06 02:37:17;;;;;;;8.17;5.93;;;13.10;99.90;;;;;;4994964;28;22333;-62
2023/09/06 02:39:43;;;;;;;8.80;6.50;;;13.00;99.90;;;;;;4993840;28;20252;-60
2023/09/06 02:42:08;;;;;;;12.00;6.30;;;13.00;99.90;;;;;;4997278;28;20207;-60
2023/09/06 02:44:34;;;;;;;13.20;6.50;;;13.00;99.90;;;;;;4997001;28;20276;-58
2023/09/06 02:47:03;;;;;;;12.13;6.40;;;13.00;99.90;;;;;;4991792;28;20215;-58
2023/09/06 02:49:29;;;;;;;23.83;6.60;;;13.00;99.90;;;;;;4992214;28;20185;-57
2023/09/06 02:51:56;;;;;;;8.70;5.83;;;13.00;99.90;;;;;;4995849;28;20448;-59
2023/09/06 02:54:22;;;;;;;8.60;6.10;;;13.00;99.90;;;;;;4996002;28;20268;-59
2023/09/06 02:56:48;;;;;;;12.67;6.10;;;13.00;99.90;;;;;;4991351;28;20512;-59
2023/09/06 02:59:15;;;;;;;8.37;5.73;;;13.00;99.90;;;;;;4995448;28;20634;-59
2023/09/06 03:01:44;;;;;;;9.83;6.20;;;12.90;99.90;;;;;;4994201;28;20176;-59
2023/09/06 03:04:13;;;;;;;7.70;5.43;;;12.90;99.90;;;;;;4998432;28;20960;-59
2023/09/06 03:06:43;;;;;;;12.40;6.30;;;12.90;99.90;;;;;;4995059;28;20489;-59
2023/09/06 03:09:10;;;;;;;9.60;6.20;;;12.80;99.90;;;;;;4993383;28;22318;-59
2023/09/06 03:11:36;;;;;;;8.10;6.07;;;12.80;99.90;;;;;;4989685;28;20443;-58
2023/09/06 03:14:04;;;;;;;9.40;6.17;;;12.70;99.90;;;;;;5000485;28;20971;-58
2023/09/06 03:16:38;;;;;;;7.67;6.17;;;12.70;99.90;;;;;;4994882;28;20223;-59
2023/09/06 03:19:09;;;;;;;10.10;6.50;;;12.60;99.90;;;;;;4993812;28;20423;-57
2023/09/06 03:21:38;;;;;;;7.53;6.30;;;12.60;99.90;;;;;;4994829;28;20495;-58
2023/09/06 03:24:11;;;;;;;10.77;7.10;;;12.60;99.90;;;;;;4995966;28;20440;-59
2023/09/06 03:26:40;;;;;;;8.83;6.80;;;12.60;99.90;;;;;;4993076;28;20494;-58
2023/09/06 03:29:10;;;;;;;11.30;5.80;;;12.50;99.90;;;;;;4996980;28;20477;-57
2023/09/06 03:31:42;;;;;;;10.67;6.17;;;12.60;99.90;;;;;;4992365;28;21171;-60
2023/09/06 03:34:13;;;;;;;8.57;6.40;;;12.50;99.90;;;;;;4996116;28;20423;-59
2023/09/06 03:36:40;;;;;;;9.50;6.30;;;12.50;99.90;;;;;;5006824;28;20499;-59
2023/09/06 03:39:06;;;;;;;11.50;7.03;;;12.50;99.90;;;;;;5005193;28;20447;-58
2023/09/06 03:41:32;;;;;;;16.10;6.90;;;12.50;99.90;;;;;;5008248;28;20516;-59
2023/09/06 03:43:58;;;;;;;9.10;6.83;;;12.50;99.90;;;;;;5004168;28;20530;-59
2023/09/06 03:46:25;;;;;;;19.03;7.87;;;12.50;99.90;;;;;;5006897;28;20700;-59
2023/09/06 03:48:51;;;;;;;8.40;6.23;;;12.50;99.90;;;;;;5004766;28;20490;-59
2023/09/06 03:51:17;;;;;;;8.20;6.00;;;12.40;99.90;;;;;;5008799;28;21040;-58
2023/09/06 03:53:43;;;;;;;9.00;5.90;;;12.40;99.90;;;;;;5008189;28;20250;-59
2023/09/06 03:56:10;;;;;;;11.07;6.30;;;12.40;99.90;;;;;;5003010;28;20471;-60
2023/09/06 03:58:36;;;;;;;10.63;7.73;;;12.40;99.90;;;;;;5004434;28;20253;-59
2023/09/06 04:01:03;;;;;;;8.47;6.40;;;12.30;99.90;;;;;;5003275;28;20854;-58
2023/09/06 04:03:30;;;;;;;9.47;6.47;;;12.30;99.90;;;;;;5002244;28;20549;-58
2023/09/06 04:05:57;;;;;;;10.67;6.70;;;12.20;99.90;;;;;;5006511;28;20538;-59
2023/09/06 04:08:28;;;;;;;12.50;8.13;;;12.20;99.90;;;;;;5009143;28;20447;-58
2023/09/06 04:10:53;;;;;;;11.17;7.90;;;12.20;99.90;;;;;;5008305;28;20439;-59
2023/09/06 04:13:19;;;;;;;10.80;6.60;;;12.10;99.90;;;;;;5004688;28;20438;-59
2023/09/06 04:15:44;;;;;;;10.30;7.30;;;12.10;99.90;;;;;;5001259;28;20672;-59
2023/09/06 04:18:11;;;;;;;10.27;6.97;;;12.10;99.90;;;;;;5007280;28;20199;-58
2023/09/06 04:20:39;;;;;;;11.60;6.67;;;12.10;99.90;;;;;;5006587;28;20173;-66
2023/09/06 04:23:06;;;;;;;11.60;6.73;;;12.10;99.90;;;;;;4991517;28;20494;-59
2023/09/06 04:25:34;;;;;;;15.53;7.00;;;12.10;99.90;;;;;;4998727;28;20452;-60
2023/09/06 04:28:01;;;;;;;11.30;6.53;;;12.10;99.90;;;;;;5000684;28;20449;-59
2023/09/06 04:30:28;;;;;;;9.07;6.53;;;12.10;99.90;;;;;;5000692;28;20467;-59
2023/09/06 04:32:59;;;;;;;10.63;7.20;;;12.10;99.90;;;;;;5000737;28;20929;-59
2023/09/06 04:35:38;;;;;;;11.63;6.67;;;12.10;99.90;;;;;;4997200;28;20471;-59
2023/09/06 04:38:04;;;;;;;12.27;7.00;;;12.10;99.90;;;;;;4999357;28;20463;-59
2023/09/06 04:40:30;;;;;;;9.57;7.10;;;12.00;99.90;;;;;;4999420;28;20540;-57
2023/09/06 04:42:56;;;;;;;10.57;7.70;;;12.00;99.90;;;;;;5003501;28;21249;-57
2023/09/06 04:45:21;;;;;;;11.00;6.77;;;12.00;99.90;;;;;;5002649;28;20204;-56
2023/09/06 04:47:47;;;;;;;13.03;8.10;;;12.00;99.90;;;;;;5002302;28;20438;-58
2023/09/06 04:50:13;;;;;;;11.27;8.03;;;12.00;99.90;;;;;;5006294;28;20193;-57
2023/09/06 04:52:47;;;;;;;10.20;7.20;;;11.90;99.90;;;;;;5000166;28;20239;-57
2023/09/06 04:55:14;;;;;;;10.17;7.37;;;11.90;99.90;;;;;;5000589;28;20218;-59
2023/09/06 04:57:42;;;;;;;9.70;7.13;;;11.90;99.90;;;;;;4999554;28;20434;-59
2023/09/06 05:00:23;;;;;;;9.10;7.17;;;11.90;99.90;;;;;;5003988;28;20439;-58
2023/09/06 05:02:53;;;;;;;11.17;7.20;;;11.90;99.90;;;;;;4998331;28;20935;-59
2023/09/06 05:05:21;;;;;;;8.83;6.57;;;11.90;99.90;;;;;;4992194;28;21005;-59
2023/09/06 05:07:47;;;;;;;13.70;8.13;;;11.90;99.90;;;;;;5002169;28;20427;-59
2023/09/06 05:10:13;;;;;;;10.40;7.80;;;11.90;99.90;;;;;;5007094;28;20449;-59
2023/09/06 05:12:39;;;;;;;13.57;7.87;;;11.90;99.90;;;;;;5008146;28;21061;-59
2023/09/06 05:15:06;;;;;;;10.77;7.03;;;11.90;99.90;;;;;;5005364;28;20298;-59
2023/09/06 05:17:32;;;;;;;11.20;7.20;;;11.80;99.90;;;;;;5000271;28;20431;-58
2023/09/06 05:20:32;;;;;;;10.47;7.17;;;11.80;99.90;;;;;;5004252;28;20558;-59
2023/09/06 05:23:00;;;;;;;10.30;6.73;;;11.80;99.90;;;;;;4999928;28;20923;-60
2023/09/06 05:25:26;;;;;;;9.30;7.03;;;11.70;99.90;;;;;;5007204;28;20450;-61
2023/09/06 05:27:59;;;;;;;14.70;6.87;;;11.70;99.90;;;;;;5004764;28;20531;-60
2023/09/06 05:30:25;;;;;;;12.73;6.83;;;11.70;99.90;;;;;;5002919;28;20184;-60
2023/09/06 05:32:51;;;;;;;15.80;7.50;;;11.70;99.90;;;;;;5009903;28;20430;-60
2023/09/06 05:35:17;;;;;;;10.10;6.97;;;11.70;99.90;;;;;;5010417;28;20474;-60
2023/09/06 05:37:42;;;;;;;15.13;7.37;;;11.70;99.90;;;;;;5001878;28;20281;-60
2023/09/06 05:40:09;;;;;;;11.20;7.40;;;11.70;99.90;;;;;;5009292;28;20203;-60
2023/09/06 05:42:35;;;;;;;14.60;7.27;;;11.80;99.90;;;;;;5009785;28;20192;-60
2023/09/06 05:45:01;;;;;;;10.07;6.20;;;11.80;99.90;;;;;;5008912;28;20582;-60
2023/09/06 05:47:26;;;;;;;11.63;6.80;;;11.90;99.90;;;;;;5010088;28;20482;-60
2023/09/06 05:49:55;;;;;;;7.93;5.63;;;11.90;99.90;;;;;;5009949;28;20192;-59
2023/09/06 05:52:24;;;;;;;10.97;7.00;;;12.00;99.90;;;;;;5006344;28;20191;-59
2023/09/06 05:54:50;;;;;;;9.80;6.67;;;12.10;99.90;;;;;;5008605;28;20521;-59
2023/09/06 05:57:16;;;;;;;10.07;7.53;;;12.10;99.90;;;;;;5007305;28;20843;-59
2023/09/06 05:59:41;;;;;;;11.33;6.83;;;12.20;99.90;;;;;;5007074;28;20645;-59
2023/09/06 06:02:07;;;;;;;10.97;7.47;;;12.20;99.90;;;;;;4997602;28;20189;-58
2023/09/06 06:04:34;;;;;;;11.80;6.73;;;12.20;99.90;;;;;;5008261;28;20180;-58
2023/09/06 06:06:59;;;;;;;8.93;7.00;;;12.30;99.90;;;;;;5002933;28;20462;-59
2023/09/06 06:09:25;;;;;;;11.53;7.27;;;12.30;99.90;;;;;;5005089;28;20435;-61
2023/09/06 06:11:54;;;;;;;8.43;7.00;;;12.40;99.90;;;;;;5002917;28;20243;-58
2023/09/06 06:14:20;;;;;;;9.03;7.60;;;12.50;99.90;;;;;;5004916;28;20510;-59
2023/09/06 06:16:46;;;;;;;9.40;7.33;;;12.60;99.90;;;;;;5009619;28;20457;-58
2023/09/06 06:19:12;;;;;;;13.47;7.80;;;12.70;99.90;;;;;;5009236;28;20852;-60
2023/09/06 06:21:39;;;;;;;10.80;7.80;;;12.70;99.90;;;;;;5010525;28;20432;-60
2023/09/06 06:24:08;;;;;;;11.90;8.20;;;12.80;99.90;;;;;;5006300;28;20431;-59
2023/09/06 06:26:33;;;;;;;13.60;8.27;;;12.90;99.90;;;;;;5001934;28;20570;-59
2023/09/06 06:28:59;;;;;;;10.47;8.20;;;13.00;99.90;;;;;;5005391;28;20539;-59
2023/09/06 06:31:25;;;;;;;10.03;7.80;;;13.00;99.90;;;;;;5008857;28;20187;-59
2023/09/06 06:33:50;;;;;;;11.23;8.73;;;13.10;99.90;;;;;;5001237;28;20192;-59
2023/09/06 06:36:16;;;;;;;13.90;10.60;;;13.20;99.90;;;;;;5010803;28;20216;-59
2023/09/06 06:38:46;;;;;;;16.57;11.90;;;13.20;99.90;;;;;;5011022;28;20183;-59
2023/09/06 06:41:20;;;;;;;14.80;10.80;;;13.30;99.90;;;;;;5009755;28;20230;-59
2023/09/06 06:43:46;;;;;;;13.80;10.70;;;13.30;99.90;;;;;;4999185;28;20435;-59
2023/09/06 06:46:29;;;;;;;19.93;10.57;;;13.40;99.90;;;;;;5005164;28;20997;-59
2023/09/06 06:48:56;;;;;;;14.33;10.60;;;13.50;99.90;;;;;;5004803;28;20435;-60
2023/09/06 06:51:25;;;;;;;14.50;10.50;;;13.60;99.90;;;;;;5008238;28;20439;-60
2023/09/06 06:53:51;;;;;;;15.00;9.40;;;13.70;99.90;;;;;;5009579;28;20473;-61
2023/09/06 06:56:21;;;;;;;9.87;8.70;;;13.80;99.90;;;;;;5000232;28;21022;-58
2023/09/06 06:58:50;;;;;;;15.37;9.53;;;13.90;99.90;;;;;;4993721;28;20267;-58
2023/09/06 07:01:16;;;;;;;12.50;8.10;;;14.00;99.90;;;;;;5002714;28;20427;-59
2023/09/06 07:03:42;;;;;;;12.33;8.10;;;14.00;99.90;;;;;;5004530;28;21208;-59
2023/09/06 07:06:08;;;;;;;12.30;8.03;;;14.10;99.90;;;;;;5007768;28;20231;-59
2023/09/06 07:08:35;;;;;;;11.70;8.73;;;14.20;99.90;;;;;;4999490;28;20653;-58
2023/09/06 07:11:03;;;;;;;12.27;8.50;;;14.30;99.90;;;;;;5002987;28;20519;-59
2023/09/06 07:13:29;;;;;;;14.03;8.17;;;14.40;99.90;;;;;;4999310;28;20439;-58
2023/09/06 07:15:54;;;;;;;11.93;8.13;;;14.50;99.90;;;;;;5002719;28;21005;-57
2023/09/06 07:18:20;;;;;;;14.40;8.77;;;14.50;99.90;;;;;;5003866;28;20180;-57
2023/09/06 07:20:47;;;;;;;11.83;8.67;;;14.60;99.90;;;;;;5003506;28;20192;-57
2023/09/06 07:23:13;;;;;;;13.20;8.60;;;14.70;99.90;;;;;;5002713;28;20841;-57
2023/09/06 07:25:39;;;;;;;12.80;8.83;;;14.70;99.90;;;;;;5003032;28;20565;-58
2023/09/06 07:28:05;;;;;;;15.93;8.40;;;14.80;99.90;;;;;;5000919;28;20451;-59
2023/09/06 07:30:32;;;;;;;11.63;8.30;;;14.90;99.90;;;;;;5004897;28;20557;-58
2023/09/06 07:32:58;;;;;;;14.20;9.43;;;15.00;99.90;;;;;;4999581;28;20535;-58
2023/09/06 07:35:23;;;;;;;14.70;9.83;;;15.10;99.90;;;;;;4998262;28;20467;-58
2023/09/06 07:37:49;;;;;;;13.03;9.17;;;15.20;99.90;;;;;;4995910;28;20458;-58
2023/09/06 07:40:15;;;;;;;12.77;9.07;;;15.40;99.90;;;;;;4999521;28;20184;-60
2023/09/06 07:42:40;;;;;;;11.70;8.70;;;15.50;99.90;;;;;;5018588;28;20272;-59
2023/09/06 07:45:07;;;;;;;11.50;8.43;;;15.60;99.90;;;;;;4984731;28;20204;-59
2023/09/06 07:47:33;;;;;;;12.37;8.60;;;15.80;99.90;;;;;;5021548;28;20191;-60
2023/09/06 07:49:59;;;;;;;10.50;7.90;;;15.90;99.90;;;;;;5006532;28;20900;-60
2023/09/06 07:52:25;;;;;;;13.07;8.60;;;16.00;99.90;;;;;;5002259;28;20518;-58
2023/09/06 07:54:50;;;;;;;10.93;8.43;;;16.20;99.90;;;;;;5006039;28;21596;-57
2023/09/06 07:57:16;;;;;;;16.27;9.60;;;16.30;99.90;;;;;;5004257;28;20220;-58
2023/09/06 07:59:41;;;;;;;11.50;8.30;;;16.50;99.90;;;;;;5005287;28;20188;-59
2023/09/06 08:02:08;;;;;;;11.07;8.20;;;16.60;99.90;;;;;;4996812;28;20219;-58
2023/09/06 08:04:33;;;;;;;11.83;7.80;;;16.70;99.90;;;;;;4993994;28;20179;-57
2023/09/06 08:06:59;;;;;;;11.33;7.70;;;16.80;99.90;;;;;;4994577;28;21121;-55
2023/09/06 08:09:25;;;;;;;10.50;7.70;;;17.00;99.90;;;;;;4995594;28;20732;-60
2023/09/06 08:11:51;;;;;;;12.60;7.63;;;17.20;99.90;;;;;;4998000;28;20189;-60
2023/09/06 08:14:16;;;;;;;16.57;7.30;;;17.30;99.90;;;;;;5001856;28;20173;-60
2023/09/06 08:16:42;;;;;;;10.03;6.90;;;17.40;99.90;;;;;;5001630;28;20666;-60
2023/09/06 08:19:08;;;;;;;12.63;6.90;;;17.50;99.90;;;;;;5001270;28;20184;-60
2023/09/06 08:21:34;;;;;;;9.63;7.37;;;17.60;99.90;;;;;;5001289;28;20431;-60
2023/09/06 08:24:02;;;;;;;11.63;7.80;;;17.70;99.90;;;;;;5005045;28;20231;-59
2023/09/06 08:26:28;;;;;;;12.03;7.50;;;17.80;99.90;;;;;;5001212;28;20447;-60
2023/09/06 08:28:53;;;;;;;9.73;7.03;;;17.90;99.90;;;;;;5001415;28;20802;-61
2023/09/06 08:31:19;;;;;;;10.63;6.70;;;18.10;99.90;;;;;;5001981;28;20432;-60
2023/09/06 08:33:45;;;;;;;9.50;6.60;;;18.20;99.90;;;;;;5005177;28;20227;-60
2023/09/06 08:36:11;;;;;;;7.17;6.20;;;18.30;99.90;;;;;;5003413;28;20220;-61
2023/09/06 08:38:39;;;;;;;9.53;7.13;;;18.40;99.90;;;;;;5005704;28;20223;-60
2023/09/06 08:41:07;;;;;;;7.83;5.80;;;18.50;99.90;;;;;;5003753;28;20431;-60
2023/09/06 08:43:36;;;;;;;9.93;6.20;;;18.60;99.10;;;;;;5005034;28;20943;-60
2023/09/06 08:46:21;;;;;;;7.50;6.53;;;18.80;99.20;;;;;;5002012;28;20451;-61
2023/09/06 08:48:47;;;;;;;9.87;6.13;;;18.90;98.20;;;;;;5005820;28;20533;-60
2023/09/06 08:51:15;;;;;;;10.93;6.10;;;19.00;97.80;;;;;;5007949;28;20427;-60
2023/09/06 08:53:42;;;;;;;11.27;5.90;;;19.10;98.30;;;;;;5005785;28;20531;-59
2023/09/06 08:56:08;;;;;;;10.07;5.83;;;19.20;96.90;;;;;;5001625;28;20475;-60
2023/09/06 08:58:34;;;;;;;8.20;6.37;;;19.30;97.10;;;;;;5001239;28;20513;-59
2023/09/06 09:01:01;;;;;;;9.40;6.30;;;19.40;97.30;;;;;;5000755;28;20189;-58
2023/09/06 09:03:26;;;;;;;9.30;6.63;;;19.60;97.70;;;;;;5002271;28;20582;-58
2023/09/06 09:05:59;;;;;;;10.03;6.70;;;19.70;95.60;;;;;;5005432;28;20991;-58
2023/09/06 09:08:27;;;;;;;12.43;6.37;;;19.90;93.90;;;;;;5009940;28;20268;-59
2023/09/06 09:11:13;;;;;;;9.40;6.60;;;20.00;93.20;;;;;;5002859;28;20523;-58
2023/09/06 09:13:39;;;;;;;7.67;6.37;;;20.20;89.80;;;;;;5006154;28;20420;-59
2023/09/06 09:16:10;;;;;;;11.80;5.70;;;20.20;90.10;;;;;;5005157;28;20459;-59
2023/09/06 09:18:38;;;;;;;10.10;6.47;;;20.40;90.70;;;;;;5005730;28;20916;-59
2023/09/06 09:21:04;;;;;;;7.60;5.50;;;20.50;91.90;;;;;;5001567;28;20431;-58
2023/09/06 09:23:31;;;;;;;8.83;6.17;;;20.60;90.50;;;;;;5009684;28;20435;-58
2023/09/06 09:25:57;;;;;;;13.23;5.70;;;20.80;91.50;;;;;;5004099;28;20469;-60
2023/09/06 09:28:23;;;;;;;13.20;6.10;;;20.90;89.70;;;;;;5004280;28;20442;-59
2023/09/06 09:30:49;;;;;;;9.73;6.37;;;21.00;90.20;;;;;;5007821;28;20185;-60
2023/09/06 09:33:14;;;;;;;11.63;6.07;;;21.20;88.90;;;;;;5007708;28;20416;-59
2023/09/06 09:35:40;;;;;;;9.20;6.77;;;21.30;85.10;;;;;;5008505;28;20478;-58
2023/09/06 09:38:13;;;;;;;7.07;5.70;;;21.30;80.30;;;;;;5007970;28;20193;-59
2023/09/06 09:40:38;;;;;;;6.80;5.73;;;21.40;83.10;;;;;;5006687;28;20524;-59
2023/09/06 09:43:04;;;;;;;8.87;5.90;;;21.60;86.30;;;;;;5012157;28;20473;-59
2023/09/06 09:45:40;;;;;;;7.70;6.00;;;21.60;81.60;;;;;;5003872;28;20262;-60
2023/09/06 09:48:07;;;;;;;7.77;6.10;;;21.80;85.40;;;;;;5010030;28;20245;-59
2023/09/06 09:50:34;;;;;;;9.50;6.10;;;21.90;84.20;;;;;;5003398;28;20442;-59
2023/09/06 09:53:03;;;;;;;7.27;6.20;;;22.00;81.10;;;;;;5010468;28;20434;-59
2023/09/06 09:55:32;;;;;;;10.70;6.70;;;22.10;78.30;;;;;;5007665;28;20471;-59
2023/09/06 09:58:05;;;;;;;12.30;6.70;;;22.20;78.20;;;;;;5010404;28;20431;-59
2023/09/06 10:00:32;;;;;;;11.07;6.17;;;22.30;75.90;;;;;;5004018;28;20817;-59
2023/09/06 10:02:59;;;;;;;7.53;5.90;;;22.30;76.20;;;;;;5009670;28;20420;-59
2023/09/06 10:05:29;;;;;;;9.20;6.90;;;22.40;77.00;;;;;;5008260;28;20451;-59
2023/09/06 10:07:56;;;;;;;7.97;6.00;;;22.50;75.90;;;;;;5005560;28;21006;-59
2023/09/06 10:10:26;;;;;;;7.00;6.03;;;22.60;75.70;;;;;;5008229;28;20518;-61
2023/09/06 10:12:53;;;;;;;8.23;5.97;;;22.70;76.40;;;;;;5007577;28;20455;-59
2023/09/06 10:15:25;;;;;;;9.83;6.03;;;22.90;75.50;;;;;;4998498;28;20478;-59
2023/09/06 10:17:54;;;;;;;8.00;5.90;;;22.90;71.70;;;;;;5000941;28;20438;-59
2023/09/06 10:20:23;;;;;;;9.80;6.10;;;23.00;72.60;;;;;;4998768;28;20443;-59
2023/09/06 10:22:52;;;;;;;10.13;6.57;;;23.10;73.00;;;;;;4999044;28;21288;-61
2023/09/06 10:25:19;;;;;;;10.23;5.47;;;23.10;69.60;;;;;;4996636;28;20483;-59
2023/09/06 10:27:54;;;;;;;14.17;6.13;;;23.20;70.00;;;;;;5001250;28;20443;-59
2023/09/06 10:30:34;;;;;;;7.27;5.50;;;23.30;68.20;;;;;;4997285;28;20444;-60
2023/09/06 10:33:02;;;;;;;7.20;5.30;;;23.40;69.20;;;;;;4998686;28;20481;-59
2023/09/06 10:35:31;;;;;;;6.03;5.43;;;23.50;68.00;;;;;;5005263;28;20490;-60
2023/09/06 10:38:14;;;;;;;7.20;5.57;;;23.60;67.60;;;;;;5006460;28;20462;-59
2023/09/06 10:40:49;;;;;;;8.33;6.10;;;23.60;67.30;;;;;;5006254;28;22507;-60
2023/09/06 10:43:19;;;;;;;10.53;5.50;;;23.70;66.70;;;;;;5002072;28;20866;-60
2023/09/06 10:46:18;;;;;;;7.10;5.60;;;23.70;66.00;;;;;;5007760;28;21046;-58
2023/09/06 10:49:23;;;;;;;7.40;5.83;;;23.90;69.10;;;;;;5003223;28;20881;-59
2023/09/06 10:52:11;;;;;;;6.40;5.10;;;24.00;66.10;;;;;;5004372;28;20989;-59
2023/09/06 10:54:44;;;;;;;10.43;5.40;;;24.20;67.40;;;;;;5000817;28;20981;-60
2023/09/06 10:57:14;;;;;;;7.87;5.77;;;24.40;66.20;;;;;;5003125;28;20549;-60
2023/09/06 10:59:44;;;;;;;6.03;5.00;;;24.50;67.20;;;;;;4994699;28;20489;-59
2023/09/06 11:02:18;;;;;;;6.13;4.90;;;24.70;67.40;;;;;;4998041;28;20932;-59
2023/09/06 11:04:44;;;;;;;7.73;5.67;;;24.90;66.90;;;;;;5000941;28;20483;-59
2023/09/06 11:07:10;;;;;;;5.30;4.80;;;25.00;66.90;;;;;;5004388;28;20451;-59
2023/09/06 11:09:43;;;;;;;5.77;5.17;;;25.10;65.60;;;;;;5006278;28;20184;-59
2023/09/06 11:12:13;;;;;;;5.87;5.27;;;25.30;64.70;;;;;;5007584;28;20423;-60
2023/09/06 11:14:41;;;;;;;9.53;5.00;;;25.40;64.70;;;;;;5009290;28;20419;-60
2023/09/06 11:17:07;;;;;;;7.17;5.43;;;25.50;64.90;;;;;;5008551;28;20858;-59
2023/09/06 11:19:36;;;;;;;6.07;4.67;;;25.60;62.80;;;;;;5003848;28;20431;-60
2023/09/06 11:22:06;;;;;;;6.60;5.40;;;25.70;62.60;;;;;;5003585;28;20188;-60
2023/09/06 11:24:34;;;;;;;7.33;5.10;;;25.80;62.40;;;;;;5004081;28;20538;-60
2023/09/06 11:27:03;;;;;;;6.60;4.40;;;25.90;61.90;;;;;;5002721;28;20541;-59
2023/09/06 11:29:30;;;;;;;7.43;4.80;;;26.10;61.50;;;;;;5007114;28;20430;-58
2023/09/06 11:32:08;;;;;;;6.20;4.90;;;26.10;60.20;;;;;;5002189;28;20965;-59
2023/09/06 11:34:43;;;;;;;5.93;4.40;;;26.30;60.10;;;;;;5005322;28;20438;-60
2023/09/06 11:37:12;;;;;;;9.10;4.70;;;26.40;60.00;;;;;;4995199;28;20468;-60
2023/09/06 11:39:40;;;;;;;8.23;5.10;;;26.50;59.30;;;;;;4994026;28;20262;-59
2023/09/06 11:42:10;;;;;;;8.77;4.53;;;26.60;59.80;;;;;;4996138;28;20531;-59
2023/09/06 11:44:39;;;;;;;4.57;4.03;;;26.80;59.20;;;;;;4990607;28;20172;-59
2023/09/06 11:47:06;;;;;;;4.77;3.90;;;26.90;58.70;;;;;;4990262;28;21196;-59
2023/09/06 11:49:34;;;;;;;6.40;3.77;;;27.00;57.80;;;;;;4995056;28;20184;-60
2023/09/06 11:52:04;;;;;;;5.77;3.90;;;27.20;57.40;;;;;;4994625;28;20185;-57
2023/09/06 11:54:32;;;;;;;4.90;3.53;;;27.30;56.40;;;;;;5002777;28;20210;-58
2023/09/06 11:56:58;;;;;;;4.63;4.13;;;27.40;56.30;;;;;;4995590;28;20212;-59
2023/09/06 11:59:28;;;;;;;5.17;3.90;;;27.60;55.00;;;;;;5000203;28;20246;-58
2023/09/06 12:01:59;;;;;;;4.97;4.27;;;27.70;54.40;;;;;;4999440;28;20554;-59
2023/09/06 12:04:26;;;;;;;6.77;4.07;;;27.80;55.00;;;;;;5003142;28;20183;-58
2023/09/06 12:06:58;;;;;;;4.90;4.50;;;27.90;54.70;;;;;;4998285;28;20315;-61
2023/09/06 12:09:24;;;;;;;6.40;4.50;;;28.10;53.90;;;;;;5000200;28;20198;-59
2023/09/06 12:11:51;;;;;;;5.93;3.93;;;28.20;53.90;;;;;;4997507;28;20599;-58
2023/09/06 12:14:17;;;;;;;4.73;4.23;;;28.40;54.10;;;;;;4996650;28;20180;-59
2023/09/06 12:16:42;;;;;;;6.23;4.53;;;28.50;54.00;;;;;;4996213;28;20844;-58
2023/09/06 12:19:13;;;;;;;3.90;3.40;;;28.60;53.40;;;;;;5002353;28;20187;-59
2023/09/06 12:21:39;;;;;;;7.35;3.72;;;28.70;53.60;;;;;;5003627;28;20187;-59
2023/09/06 12:24:05;;;;;;;6.88;4.10;;;28.80;53.50;;;;;;5001949;28;20176;-59
2023/09/06 12:26:32;;;;;;;8.45;3.85;;;28.90;52.30;;;;;;5002427;28;20682;-59
2023/09/06 12:28:57;;;;;;;5.95;3.70;;;29.00;51.20;;;;;;5002866;28;20176;-59
2023/09/06 12:31:23;;;;;;;3.88;3.45;;;29.10;51.60;;;;;;5003509;28;20187;-59
2023/09/06 12:33:51;;;;;;;5.70;3.53;;;29.30;51.60;;;;;;5002558;28;20214;-60
2023/09/06 12:36:17;;;;;;;4.18;3.55;;;29.40;50.10;;;;;;5002801;28;20216;-60
2023/09/06 12:38:43;;;;;;;4.47;3.70;;;29.60;49.60;;;;;;5004825;28;20184;-59
2023/09/06 12:41:09;;;;;;;3.05;2.85;;;29.70;49.50;;;;;;5002717;28;20687;-59
2023/09/06 12:43:36;;;;;;;4.40;3.15;;;29.80;49.10;;;;;;5002939;28;20239;-60
2023/09/06 12:46:02;;;;;;;3.85;3.13;;;29.90;48.40;;;;;;5005454;28;20196;-60
2023/09/06 12:48:28;;;;;;;4.18;3.40;;;29.90;47.30;;;;;;5003608;28;20184;-60